createdAt,value
2022-12-07T00:00:40.713Z,3.95
2022-12-07T00:01:44.069Z,3.88
2022-12-07T00:02:45.757Z,3.93
2022-12-07T00:03:49.471Z,3.93
2022-12-07T00:04:51.240Z,3.93
2022-12-07T00:05:52.889Z,3.94
2022-12-07T00:06:54.650Z,3.94
2022-12-07T00:07:56.442Z,3.94
2022-12-07T00:08:58.101Z,3.95
2022-12-07T00:10:00.202Z,3.95
2022-12-07T00:11:10.576Z,3.96
2022-12-07T00:12:12.370Z,3.95
2022-12-07T00:13:14.365Z,3.96
2022-12-07T00:14:17.571Z,3.95
2022-12-07T00:15:19.414Z,3.95
2022-12-07T00:16:23.097Z,3.96
2022-12-07T00:17:24.874Z,3.96
2022-12-07T00:18:26.609Z,3.92
2022-12-07T00:19:28.373Z,3.96
2022-12-07T00:20:30.033Z,3.95
2022-12-07T00:21:34.407Z,3.96
2022-12-07T00:22:36.081Z,3.95
2022-12-07T00:23:38.245Z,3.96
2022-12-07T00:24:39.970Z,3.96
2022-12-07T00:25:41.693Z,3.89
2022-12-07T00:26:43.787Z,3.95
2022-12-07T00:27:45.599Z,3.95
2022-12-07T00:28:49.042Z,3.96
2022-12-07T00:29:50.804Z,3.96
2022-12-07T00:30:52.417Z,3.95
2022-12-07T00:31:54.139Z,3.96
2022-12-07T00:32:55.793Z,3.95
2022-12-07T00:33:58.607Z,3.95
2022-12-07T00:35:00.303Z,3.95
2022-12-07T00:36:03.828Z,3.94
2022-12-07T00:37:05.522Z,3.95
2022-12-07T00:38:08.105Z,3.94
2022-12-07T00:39:10.369Z,3.94
2022-12-07T00:40:12.708Z,3.92
2022-12-07T00:41:17.150Z,3.91
2022-12-07T00:42:18.857Z,3.87
2022-12-07T00:43:20.590Z,3.82
2022-12-07T00:44:22.584Z,3.81
2022-12-07T00:45:24.255Z,3.71
2022-12-07T00:46:26.731Z,3.77
2022-12-07T00:47:28.394Z,3.75
2022-12-07T00:48:30.500Z,3.73
2022-12-07T00:49:32.188Z,3.72
2022-12-07T00:50:33.930Z,3.72
2022-12-07T00:51:35.644Z,3.71
2022-12-07T00:52:37.277Z,3.69
2022-12-07T00:53:41.900Z,3.70
2022-12-07T00:54:43.876Z,3.69
2022-12-07T00:55:46.170Z,3.68
2022-12-07T00:56:47.886Z,3.68
2022-12-07T00:57:49.767Z,3.68
2022-12-07T00:58:57.085Z,3.69
2022-12-07T00:59:59.086Z,3.68
2022-12-07T01:01:03.305Z,3.66
2022-12-07T01:02:05.205Z,3.67
2022-12-07T01:03:08.336Z,3.66
2022-12-07T01:04:10.344Z,3.66
2022-12-07T01:05:12.083Z,3.65
2022-12-07T01:06:19.167Z,3.65
2022-12-07T01:07:20.757Z,3.64
2022-12-07T01:08:23.454Z,3.64
2022-12-07T01:09:25.331Z,3.65
2022-12-07T01:10:27.883Z,3.62
2022-12-07T01:11:31.187Z,3.63
2022-12-07T01:12:32.934Z,3.61
2022-12-07T01:13:35.778Z,3.63
2022-12-07T01:14:37.403Z,3.54
2022-12-07T01:15:43.641Z,3.62
2022-12-07T01:16:45.315Z,3.58
2022-12-07T01:17:47.515Z,3.61
2022-12-07T01:18:51.789Z,3.58
2022-12-07T01:19:53.554Z,3.61
2022-12-07T01:21:03.655Z,3.62
2022-12-07T01:22:05.717Z,3.62
2022-12-07T01:23:07.501Z,3.60
2022-12-07T01:24:12.065Z,3.60
2022-12-07T01:25:13.779Z,3.59
2022-12-07T01:26:18.636Z,3.58
2022-12-07T01:27:20.317Z,3.59
2022-12-07T01:28:22.014Z,3.59
2022-12-07T01:29:23.757Z,3.58
2022-12-07T01:30:25.591Z,3.58
2022-12-07T01:31:29.021Z,3.59
2022-12-07T01:32:30.622Z,3.58
2022-12-07T01:33:35.377Z,3.55
2022-12-07T01:34:37.211Z,3.58
2022-12-07T01:35:38.927Z,3.59
2022-12-07T01:36:40.788Z,3.60
2022-12-07T01:37:42.546Z,3.47
2022-12-07T01:38:45.820Z,3.63
2022-12-07T01:39:50.297Z,3.56
2022-12-07T01:40:56.726Z,3.64
2022-12-07T01:41:58.388Z,3.64
2022-12-07T01:43:00.004Z,3.61
2022-12-07T01:44:13.136Z,3.64
2022-12-07T01:45:41.430Z,3.64
2022-12-07T01:46:49.124Z,3.62
2022-12-07T01:47:57.600Z,3.62
2022-12-07T01:48:59.941Z,3.62
2022-12-07T01:50:02.145Z,3.55
2022-12-07T01:51:10.061Z,3.60
2022-12-07T01:52:19.575Z,3.59
2022-12-07T01:53:24.256Z,3.58
2022-12-07T01:54:26.814Z,3.56
2022-12-07T01:55:28.756Z,3.54
2022-12-07T01:56:32.270Z,3.54
2022-12-07T01:57:37.933Z,3.55
2022-12-07T01:58:40.153Z,3.53
2022-12-07T01:59:43.668Z,3.51
2022-12-07T02:00:45.402Z,3.49
2022-12-07T02:01:47.429Z,3.52
2022-12-07T02:03:01.467Z,3.50
2022-12-07T02:04:03.378Z,3.48
2022-12-07T02:05:07.154Z,3.48
2022-12-07T02:06:11.219Z,3.48
2022-12-07T02:07:13.166Z,3.46
2022-12-07T02:08:15.651Z,3.41
2022-12-07T02:09:17.414Z,3.46
2022-12-07T02:10:21.605Z,3.46
2022-12-07T02:11:23.716Z,3.45
2022-12-07T02:12:26.206Z,3.44
2022-12-07T02:13:32.157Z,3.44
2022-12-07T02:14:34.073Z,3.43
2022-12-07T02:15:51.921Z,3.41
2022-12-07T02:17:19.637Z,3.41
2022-12-07T02:18:34.236Z,3.35
2022-12-07T02:19:52.531Z,3.38
2022-12-07T02:21:29.384Z,3.40
2022-12-07T02:22:37.146Z,3.39
2022-12-07T02:24:06.704Z,3.38
2022-12-07T02:25:53.091Z,3.38
2022-12-07T02:27:28.754Z,3.40
2022-12-07T02:28:56.523Z,3.39
2022-12-07T02:30:13.887Z,3.34
2022-12-07T02:31:22.333Z,3.39
2022-12-07T02:32:37.636Z,3.40
2022-12-07T02:33:47.200Z,3.39
2022-12-07T02:35:17.454Z,3.40
2022-12-07T02:36:26.623Z,3.41
2022-12-07T02:37:55.624Z,3.36
2022-12-07T02:39:04.774Z,3.36
2022-12-07T02:40:09.098Z,3.37
2022-12-07T02:41:21.697Z,3.36
2022-12-07T02:42:32.605Z,3.34
2022-12-07T02:43:45.665Z,3.31
2022-12-07T02:44:48.591Z,3.31
2022-12-07T02:45:53.512Z,3.25
2022-12-07T02:47:03.931Z,3.22
2022-12-07T02:48:08.963Z,3.21
2022-12-07T02:49:11.683Z,3.14
2022-12-07T02:50:13.602Z,3.16
2022-12-07T02:51:15.576Z,3.14
2022-12-07T02:52:17.373Z,3.12
2022-12-07T02:53:41.901Z,3.09
2022-12-07T02:54:43.619Z,3.06
2022-12-07T02:55:45.972Z,3.07
2022-12-07T02:56:57.666Z,3.03
2022-12-07T02:57:59.325Z,3.04
2022-12-07T02:59:21.333Z,3.03
2022-12-07T03:00:23.577Z,3.00
2022-12-07T03:02:10.382Z,2.95
2022-12-07T03:03:15.036Z,2.90
2022-12-07T03:04:44.447Z,2.94
2022-12-07T03:06:01.487Z,2.92
2022-12-07T03:07:15.728Z,2.88
2022-12-07T03:08:34.247Z,2.85
2022-12-07T03:09:49.426Z,2.81
2022-12-07T03:11:18.943Z,2.81
2022-12-07T03:12:34.780Z,2.81
2022-12-07T03:14:04.886Z,2.82
2022-12-07T03:15:13.017Z,2.83
2022-12-07T03:16:17.810Z,2.84
2022-12-07T03:17:27.532Z,2.82
2022-12-07T03:18:33.464Z,2.82
2022-12-07T03:19:37.029Z,2.83
2022-12-07T03:20:41.123Z,2.90
2022-12-07T03:21:47.458Z,2.94
2022-12-07T03:22:49.140Z,2.95
2022-12-07T03:23:58.016Z,2.97
2022-12-07T03:25:05.279Z,2.97
2022-12-07T03:26:11.266Z,2.95
2022-12-07T03:27:25.645Z,2.96
2022-12-07T03:28:33.237Z,2.99
2022-12-07T03:29:44.518Z,3.00
2022-12-07T03:30:58.390Z,3.02
2022-12-07T03:32:15.880Z,3.03
2022-12-07T03:33:30.415Z,3.03
2022-12-07T03:34:42.056Z,3.03
2022-12-07T03:35:57.348Z,3.01
2022-12-07T03:37:08.806Z,3.00
2022-12-07T03:38:25.230Z,2.78
2022-12-07T03:39:35.266Z,3.00
2022-12-07T03:40:53.695Z,3.00
2022-12-07T03:41:57.070Z,2.94
2022-12-07T03:43:02.704Z,3.01
2022-12-07T03:44:05.503Z,3.01
2022-12-07T03:45:10.166Z,2.98
2022-12-07T03:46:22.120Z,2.99
2022-12-07T03:47:32.821Z,3.00
2022-12-07T03:48:52.991Z,2.99
2022-12-07T03:50:00.653Z,2.97
2022-12-07T03:51:18.867Z,2.96
2022-12-07T03:52:37.535Z,2.95
2022-12-07T03:53:45.894Z,2.93
2022-12-07T03:54:53.474Z,2.94
2022-12-07T03:55:57.042Z,2.91
2022-12-07T03:56:59.691Z,2.92
2022-12-07T03:58:07.007Z,2.89
2022-12-07T03:59:09.219Z,2.91
2022-12-07T04:00:13.579Z,2.89
2022-12-07T04:01:15.277Z,2.91
2022-12-07T04:02:17.404Z,2.93
2022-12-07T04:03:19.128Z,2.94
2022-12-07T04:04:21.198Z,2.94
2022-12-07T04:05:23.475Z,2.94
2022-12-07T04:06:25.202Z,2.93
2022-12-07T04:07:27.065Z,2.92
2022-12-07T04:08:29.298Z,2.90
2022-12-07T04:09:30.930Z,2.84
2022-12-07T04:10:32.737Z,2.81
2022-12-07T04:11:34.375Z,2.73
2022-12-07T04:12:36.188Z,2.65
2022-12-07T04:13:57.944Z,2.55
2022-12-07T04:14:59.632Z,2.42
2022-12-07T04:16:01.356Z,2.31
2022-12-07T04:17:03.491Z,2.27
2022-12-07T04:18:05.310Z,2.20
2022-12-07T04:19:07.083Z,2.20
2022-12-07T04:20:09.600Z,2.15
2022-12-07T04:21:11.259Z,2.07
2022-12-07T04:22:12.921Z,1.97
2022-12-07T04:23:14.780Z,1.91
2022-12-07T04:24:17.436Z,1.86
2022-12-07T04:25:21.098Z,1.80
2022-12-07T04:26:22.850Z,1.77
2022-12-07T04:27:24.668Z,1.73
2022-12-07T04:28:26.777Z,1.69
2022-12-07T04:29:29.357Z,1.70
2022-12-07T04:30:31.025Z,1.64
2022-12-07T04:31:32.777Z,1.73
2022-12-07T04:32:34.540Z,1.69
2022-12-07T04:33:36.975Z,1.63
2022-12-07T04:34:38.653Z,1.42
2022-12-07T04:35:40.533Z,1.56
2022-12-07T04:36:43.184Z,1.57
2022-12-07T04:37:44.805Z,1.54
2022-12-07T04:38:46.669Z,1.54
2022-12-07T04:39:48.666Z,1.58
2022-12-07T04:40:50.303Z,1.56
2022-12-07T04:41:52.841Z,1.54
2022-12-07T04:42:54.732Z,1.54
2022-12-07T04:44:02.028Z,1.59
2022-12-07T04:45:03.888Z,1.60
2022-12-07T04:46:05.808Z,1.56
2022-12-07T04:47:07.905Z,1.61
2022-12-07T04:48:11.323Z,1.63
2022-12-07T04:49:15.062Z,1.63
2022-12-07T04:50:16.764Z,1.63
2022-12-07T04:51:22.054Z,1.65
2022-12-07T04:52:23.869Z,1.64
2022-12-07T04:53:25.550Z,1.64
2022-12-07T04:54:27.700Z,1.62
2022-12-07T04:55:29.388Z,1.63
2022-12-07T04:56:32.436Z,1.61
2022-12-07T04:57:34.253Z,1.62
2022-12-07T04:58:35.953Z,1.63
2022-12-07T04:59:42.311Z,1.64
2022-12-07T05:00:47.108Z,1.66
2022-12-07T05:01:49.041Z,1.65
2022-12-07T05:02:50.839Z,1.65
2022-12-07T05:03:52.693Z,1.64
2022-12-07T05:04:54.360Z,1.65
2022-12-07T05:05:56.061Z,1.64
2022-12-07T05:06:57.673Z,1.65
2022-12-07T05:07:59.698Z,1.58
2022-12-07T05:09:01.934Z,1.71
2022-12-07T05:10:04.762Z,1.76
2022-12-07T05:11:08.013Z,1.75
2022-12-07T05:12:09.730Z,1.75
2022-12-07T05:13:11.407Z,1.74
2022-12-07T05:14:19.697Z,1.74
2022-12-07T05:15:21.412Z,1.74
2022-12-07T05:16:23.058Z,1.77
2022-12-07T05:17:25.016Z,1.76
2022-12-07T05:18:26.830Z,1.79
2022-12-07T05:19:28.689Z,1.74
2022-12-07T05:20:30.473Z,1.79
2022-12-07T05:21:32.188Z,1.80
2022-12-07T05:22:34.903Z,1.81
2022-12-07T05:23:37.116Z,1.83
2022-12-07T05:24:38.733Z,1.82
2022-12-07T05:25:41.802Z,1.85
2022-12-07T05:26:44.091Z,1.86
2022-12-07T05:27:45.707Z,1.86
2022-12-07T05:28:52.474Z,1.90
2022-12-07T05:29:54.373Z,1.94
2022-12-07T05:30:59.811Z,1.98
2022-12-07T05:32:02.055Z,2.00
2022-12-07T05:33:04.639Z,2.04
2022-12-07T05:34:06.356Z,2.04
2022-12-07T05:35:08.513Z,2.05
2022-12-07T05:36:10.132Z,2.04
2022-12-07T05:37:11.846Z,2.06
2022-12-07T05:38:13.580Z,2.07
2022-12-07T05:39:15.336Z,2.09
2022-12-07T05:40:17.627Z,2.05
2022-12-07T05:41:39.181Z,2.07
2022-12-07T05:42:41.949Z,2.08
2022-12-07T05:43:43.649Z,2.07
2022-12-07T05:44:47.611Z,2.06
2022-12-07T05:45:49.361Z,2.06
2022-12-07T05:46:51.273Z,2.09
2022-12-07T05:47:52.946Z,1.89
2022-12-07T05:48:54.876Z,1.91
2022-12-07T05:49:56.761Z,2.08
2022-12-07T05:50:58.409Z,2.05
2022-12-07T05:52:00.376Z,2.06
2022-12-07T05:53:02.227Z,2.10
2022-12-07T05:54:04.115Z,2.11
2022-12-07T05:55:07.997Z,2.11
2022-12-07T05:56:09.818Z,2.09
2022-12-07T05:57:11.655Z,2.04
2022-12-07T05:58:31.977Z,2.02
2022-12-07T05:59:33.996Z,2.05
2022-12-07T06:00:35.810Z,2.07
2022-12-07T06:01:38.194Z,2.08
2022-12-07T06:02:41.253Z,2.10
2022-12-07T06:03:43.087Z,2.11
2022-12-07T06:04:47.480Z,2.12
2022-12-07T06:05:49.338Z,2.10
2022-12-07T06:06:51.566Z,2.12
2022-12-07T06:07:53.418Z,2.11
2022-12-07T06:08:55.077Z,2.10
2022-12-07T06:09:56.712Z,2.13
2022-12-07T06:11:16.949Z,2.14
2022-12-07T06:12:36.660Z,2.10
2022-12-07T06:13:43.752Z,2.14
2022-12-07T06:14:49.003Z,2.14
2022-12-07T06:15:50.738Z,2.14
2022-12-07T06:16:52.504Z,2.12
2022-12-07T06:17:54.251Z,2.13
2022-12-07T06:18:56.087Z,2.08
2022-12-07T06:19:58.262Z,2.15
2022-12-07T06:20:59.819Z,2.14
2022-12-07T06:22:01.946Z,2.17
2022-12-07T06:23:03.702Z,2.18
2022-12-07T06:24:05.913Z,2.19
2022-12-07T06:25:08.842Z,2.19
2022-12-07T06:26:10.960Z,2.21
2022-12-07T06:27:12.751Z,2.19
2022-12-07T06:28:14.471Z,2.19
2022-12-07T06:29:17.526Z,2.19
2022-12-07T06:30:19.394Z,2.18
2022-12-07T06:31:21.413Z,2.16
2022-12-07T06:32:23.016Z,2.18
2022-12-07T06:33:24.949Z,2.24
2022-12-07T06:34:27.686Z,2.22
2022-12-07T06:35:29.505Z,2.22
2022-12-07T06:36:31.924Z,2.23
2022-12-07T06:37:33.662Z,2.22
2022-12-07T06:38:35.684Z,2.22
2022-12-07T06:39:37.433Z,2.21
2022-12-07T06:40:39.023Z,2.08
2022-12-07T06:41:41.259Z,2.23
2022-12-07T06:42:43.411Z,2.23
2022-12-07T06:43:45.112Z,2.24
2022-12-07T06:44:46.816Z,2.23
2022-12-07T06:45:48.573Z,2.24
2022-12-07T06:46:51.476Z,2.22
2022-12-07T06:47:53.209Z,2.24
2022-12-07T06:48:55.210Z,2.25
2022-12-07T06:49:56.924Z,2.26
2022-12-07T06:50:58.614Z,2.28
2022-12-07T06:52:00.812Z,2.28
2022-12-07T06:53:02.553Z,2.28
2022-12-07T06:54:05.088Z,2.26
2022-12-07T06:55:07.248Z,2.27
2022-12-07T06:56:09.089Z,2.24
2022-12-07T06:57:10.798Z,2.27
2022-12-07T06:58:12.571Z,2.30
2022-12-07T06:59:14.739Z,2.28
2022-12-07T07:00:21.981Z,2.28
2022-12-07T07:01:24.491Z,2.27
2022-12-07T07:02:26.328Z,2.27
2022-12-07T07:03:28.339Z,2.26
2022-12-07T07:04:30.274Z,2.28
2022-12-07T07:05:32.096Z,2.28
2022-12-07T07:06:33.999Z,2.29
2022-12-07T07:07:51.762Z,2.30
2022-12-07T07:08:57.410Z,2.33
2022-12-07T07:09:59.463Z,2.34
2022-12-07T07:11:02.107Z,2.37
2022-12-07T07:12:04.028Z,2.37
2022-12-07T07:13:05.833Z,2.41
2022-12-07T07:14:07.690Z,2.44
2022-12-07T07:15:10.433Z,2.43
2022-12-07T07:16:12.228Z,2.45
2022-12-07T07:17:14.479Z,2.46
2022-12-07T07:18:16.171Z,2.48
2022-12-07T07:19:17.793Z,2.42
2022-12-07T07:20:19.635Z,2.51
2022-12-07T07:21:21.271Z,2.51
2022-12-07T07:22:22.987Z,2.50
2022-12-07T07:23:24.936Z,2.55
2022-12-07T07:24:26.739Z,2.56
2022-12-07T07:25:28.494Z,2.51
2022-12-07T07:26:31.198Z,2.57
2022-12-07T07:27:32.962Z,2.58
2022-12-07T07:28:34.888Z,2.57
2022-12-07T07:29:36.689Z,2.57
2022-12-07T07:30:38.616Z,2.60
2022-12-07T07:31:40.253Z,2.62
2022-12-07T07:32:41.953Z,2.63
2022-12-07T07:33:43.697Z,2.64
2022-12-07T07:34:45.648Z,2.66
2022-12-07T07:35:47.451Z,2.68
2022-12-07T07:36:49.235Z,2.69
2022-12-07T07:37:51.176Z,2.71
2022-12-07T07:38:52.854Z,2.75
2022-12-07T07:39:54.598Z,2.79
2022-12-07T07:40:56.329Z,2.79
2022-12-07T07:41:57.915Z,2.81
2022-12-07T07:42:59.816Z,2.84
2022-12-07T07:44:01.479Z,2.87
2022-12-07T07:45:03.415Z,2.88
2022-12-07T07:46:05.619Z,2.89
2022-12-07T07:47:07.471Z,2.87
2022-12-07T07:48:09.549Z,2.93
2022-12-07T07:49:11.989Z,2.96
2022-12-07T07:50:14.153Z,2.91
2022-12-07T07:51:15.837Z,2.86
2022-12-07T07:52:17.588Z,3.09
2022-12-07T07:53:19.412Z,3.13
2022-12-07T07:54:21.354Z,3.15
2022-12-07T07:55:23.050Z,3.18
2022-12-07T07:56:26.950Z,3.18
2022-12-07T07:57:28.761Z,3.20
2022-12-07T07:58:30.488Z,3.21
2022-12-07T07:59:32.865Z,3.08
2022-12-07T08:00:34.803Z,3.29
2022-12-07T08:01:37.110Z,3.30
2022-12-07T08:02:39.573Z,3.31
2022-12-07T08:03:42.039Z,3.33
2022-12-07T08:04:44.548Z,3.35
2022-12-07T08:05:46.623Z,3.41
2022-12-07T08:06:48.270Z,3.32
2022-12-07T08:07:49.936Z,3.44
2022-12-07T08:08:51.743Z,3.48
2022-12-07T08:09:53.684Z,3.48
2022-12-07T08:10:55.409Z,3.54
2022-12-07T08:11:57.202Z,3.59
2022-12-07T08:13:15.104Z,3.63
2022-12-07T08:14:16.929Z,3.68
2022-12-07T08:15:18.659Z,3.69
2022-12-07T08:16:20.478Z,3.71
2022-12-07T08:17:22.729Z,3.64
2022-12-07T08:18:24.492Z,3.70
2022-12-07T08:19:26.513Z,3.71
2022-12-07T08:20:28.307Z,3.75
2022-12-07T08:21:30.036Z,3.79
2022-12-07T08:22:31.887Z,3.86
2022-12-07T08:23:39.928Z,3.89
2022-12-07T08:24:41.940Z,3.90
2022-12-07T08:25:43.629Z,3.89
2022-12-07T08:26:45.386Z,3.85
2022-12-07T08:27:47.347Z,3.89
2022-12-07T08:28:49.269Z,4.01
2022-12-07T08:29:51.086Z,4.06
2022-12-07T08:30:53.129Z,4.11
2022-12-07T08:31:55.816Z,3.95
2022-12-07T08:32:57.913Z,4.09
2022-12-07T08:33:59.968Z,4.09
2022-12-07T08:35:01.887Z,4.10
2022-12-07T08:36:05.359Z,4.01
2022-12-07T08:37:07.025Z,4.05
2022-12-07T08:38:08.943Z,4.08
2022-12-07T08:40:32.933Z,4.09
2022-12-07T08:41:35.090Z,4.08
2022-12-07T08:42:41.331Z,4.04
2022-12-07T08:43:43.458Z,4.07
2022-12-07T08:44:46.893Z,4.09
2022-12-07T08:46:05.848Z,4.17
2022-12-07T08:47:08.914Z,4.15
2022-12-07T08:48:14.754Z,4.15
2022-12-07T08:49:24.466Z,4.15
2022-12-07T08:50:26.457Z,4.09
2022-12-07T08:51:28.685Z,4.12
2022-12-07T08:52:31.842Z,4.11
2022-12-07T08:53:35.323Z,4.12
2022-12-07T08:54:39.847Z,4.12
2022-12-07T08:55:41.496Z,4.12
2022-12-07T08:56:44.926Z,4.12
2022-12-07T08:57:47.003Z,4.11
2022-12-07T08:58:49.416Z,4.11
2022-12-07T08:59:51.896Z,4.09
2022-12-07T09:00:53.838Z,4.10
2022-12-07T09:01:55.708Z,4.12
2022-12-07T09:02:57.572Z,4.16
2022-12-07T09:03:59.389Z,4.20
2022-12-07T09:05:01.920Z,4.20
2022-12-07T09:06:05.161Z,4.17
2022-12-07T09:07:07.458Z,4.25
2022-12-07T09:08:09.662Z,4.26
2022-12-07T09:09:13.009Z,4.21
2022-12-07T09:10:14.922Z,4.32
2022-12-07T09:11:16.775Z,4.32
2022-12-07T09:12:18.410Z,4.33
2022-12-07T09:13:20.032Z,4.32
2022-12-07T09:14:22.173Z,4.34
2022-12-07T09:15:26.404Z,4.34
2022-12-07T09:16:28.529Z,4.30
2022-12-07T09:17:34.821Z,4.22
2022-12-07T09:18:36.472Z,4.15
2022-12-07T09:19:39.469Z,4.13
2022-12-07T09:20:41.365Z,4.10
2022-12-07T09:21:43.162Z,4.10
2022-12-07T09:22:44.893Z,4.05
2022-12-07T09:23:46.712Z,4.02
2022-12-07T09:24:48.451Z,3.95
2022-12-07T09:25:50.327Z,3.81
2022-12-07T09:26:52.242Z,3.83
2022-12-07T09:27:58.796Z,3.72
2022-12-07T09:29:00.636Z,3.74
2022-12-07T09:30:03.352Z,3.68
2022-12-07T09:32:27.770Z,3.58
2022-12-07T09:33:29.865Z,3.57
2022-12-07T09:34:33.178Z,3.57
2022-12-07T09:35:35.044Z,3.47
2022-12-07T09:36:36.841Z,3.40
2022-12-07T09:37:39.467Z,3.45
2022-12-07T09:38:41.182Z,3.46
2022-12-07T09:39:48.241Z,3.36
2022-12-07T09:40:52.123Z,3.43
2022-12-07T09:41:54.003Z,3.50
2022-12-07T09:42:57.130Z,3.53
2022-12-07T09:44:10.957Z,3.52
2022-12-07T09:45:17.828Z,3.49
2022-12-07T09:46:21.486Z,3.49
2022-12-07T09:47:23.452Z,3.41
2022-12-07T09:48:40.446Z,3.40
2022-12-07T09:49:42.180Z,3.26
2022-12-07T09:50:43.982Z,3.23
2022-12-07T09:51:45.951Z,3.28
2022-12-07T09:52:49.835Z,3.23
2022-12-07T09:53:54.495Z,3.21
2022-12-07T09:54:56.149Z,3.24
2022-12-07T09:55:57.991Z,3.19
2022-12-07T09:57:00.118Z,3.22
2022-12-07T09:58:01.845Z,3.22
2022-12-07T09:59:04.738Z,3.31
2022-12-07T10:00:28.632Z,3.30
2022-12-07T10:01:35.428Z,3.25
2022-12-07T10:02:43.020Z,3.34
2022-12-07T10:04:10.981Z,3.34
2022-12-07T10:05:24.387Z,3.42
2022-12-07T10:06:26.832Z,3.53
2022-12-07T10:07:28.786Z,3.62
2022-12-07T10:08:31.749Z,3.66
2022-12-07T10:09:36.352Z,3.61
2022-12-07T10:10:39.829Z,3.64
2022-12-07T10:12:01.754Z,3.57
2022-12-07T10:13:09.393Z,3.54
2022-12-07T10:14:13.727Z,3.47
2022-12-07T10:15:16.179Z,3.46
2022-12-07T10:16:40.018Z,3.43
2022-12-07T10:17:49.966Z,3.40
2022-12-07T10:18:52.885Z,3.38
2022-12-07T10:20:13.860Z,3.41
2022-12-07T10:21:25.158Z,3.41
2022-12-07T10:22:31.719Z,3.48
2022-12-07T10:23:35.223Z,3.53
2022-12-07T10:24:40.562Z,3.62
2022-12-07T10:25:43.688Z,3.66
2022-12-07T10:26:48.576Z,3.71
2022-12-07T10:28:03.767Z,3.66
2022-12-07T10:29:18.019Z,3.61
2022-12-07T10:30:19.877Z,3.46
2022-12-07T10:31:24.935Z,3.43
2022-12-07T10:32:32.977Z,3.42
2022-12-07T10:33:37.608Z,3.40
2022-12-07T10:34:42.644Z,3.40
2022-12-07T10:35:45.191Z,3.32
2022-12-07T10:36:46.830Z,3.28
2022-12-07T10:37:49.523Z,3.27
2022-12-07T10:39:04.689Z,3.32
2022-12-07T10:40:24.295Z,3.32
2022-12-07T10:41:26.070Z,3.38
2022-12-07T10:42:29.962Z,3.37
2022-12-07T10:43:31.812Z,3.38
2022-12-07T10:44:35.674Z,3.43
2022-12-07T10:46:03.620Z,3.50
2022-12-07T10:47:28.514Z,3.57
2022-12-07T10:48:49.330Z,3.55
2022-12-07T10:50:12.680Z,3.59
2022-12-07T10:51:28.926Z,3.65
2022-12-07T10:52:33.964Z,3.75
2022-12-07T10:53:49.021Z,3.79
2022-12-07T10:55:25.952Z,3.88
2022-12-07T10:56:30.660Z,3.94
2022-12-07T10:57:59.455Z,3.93
2022-12-07T10:59:16.529Z,3.96
2022-12-07T11:00:22.016Z,3.91
2022-12-07T11:01:30.505Z,3.92
2022-12-07T11:03:05.234Z,3.72
2022-12-07T11:04:26.427Z,3.85
2022-12-07T11:05:40.965Z,3.68
2022-12-07T11:06:54.718Z,3.75
2022-12-07T11:08:22.620Z,3.62
2022-12-07T11:09:59.416Z,3.59
2022-12-07T11:11:10.864Z,3.54
2022-12-07T11:12:36.588Z,3.61
2022-12-07T11:14:06.377Z,3.53
2022-12-07T11:15:08.379Z,3.57
2022-12-07T11:16:20.178Z,3.67
2022-12-07T11:17:34.150Z,3.70
2022-12-07T11:19:00.396Z,3.67
2022-12-07T11:20:33.087Z,3.55
2022-12-07T11:21:42.231Z,3.57
2022-12-07T11:22:58.798Z,3.58
2022-12-07T11:24:11.732Z,3.58
2022-12-07T11:25:21.165Z,3.62
2022-12-07T11:26:47.609Z,3.60
2022-12-07T11:28:11.347Z,3.61
2022-12-07T11:29:46.233Z,3.58
2022-12-07T11:30:55.396Z,3.57
2022-12-07T11:32:20.316Z,3.59
2022-12-07T11:33:28.175Z,3.64
2022-12-07T11:34:48.370Z,3.67
2022-12-07T11:36:05.521Z,3.70
2022-12-07T11:37:16.417Z,3.73
2022-12-07T11:38:26.279Z,3.85
2022-12-07T11:39:36.755Z,3.86
2022-12-07T11:40:40.770Z,3.75
2022-12-07T11:41:43.938Z,3.79
2022-12-07T11:42:54.766Z,3.90
2022-12-07T11:44:06.247Z,3.87
2022-12-07T11:45:11.014Z,3.90
2022-12-07T11:46:16.659Z,3.86
2022-12-07T11:47:29.298Z,3.89
2022-12-07T11:48:46.795Z,3.85
2022-12-07T11:50:27.145Z,3.84
2022-12-07T11:51:33.799Z,3.78
2022-12-07T11:52:38.576Z,3.71
2022-12-07T11:53:50.504Z,3.66
2022-12-07T11:54:54.778Z,3.69
2022-12-07T11:56:10.263Z,3.69
2022-12-07T11:57:21.720Z,3.71
2022-12-07T11:58:58.169Z,3.79
2022-12-07T12:00:06.494Z,3.79
2022-12-07T12:01:42.767Z,3.71
2022-12-07T12:03:11.235Z,3.70
2022-12-07T12:04:12.962Z,3.72
2022-12-07T12:05:19.359Z,3.77
2022-12-07T12:06:22.747Z,3.69
2022-12-07T12:10:45.602Z,4.03
2022-12-07T12:15:22.846Z,3.99
2022-12-07T12:16:33.661Z,3.85
2022-12-07T12:18:07.568Z,3.88
2022-12-07T12:19:26.543Z,3.84
2022-12-07T12:20:34.217Z,3.92
2022-12-07T12:21:37.104Z,3.87
2022-12-07T12:22:43.213Z,3.86
2022-12-07T12:24:17.354Z,3.81
2022-12-07T12:25:32.780Z,3.76
2022-12-07T12:26:38.412Z,3.85
2022-12-07T12:27:41.202Z,3.90
2022-12-07T12:28:51.991Z,3.90
2022-12-07T12:29:56.686Z,3.95
2022-12-07T12:31:15.845Z,3.90
2022-12-07T12:32:42.172Z,3.82
2022-12-07T12:33:58.319Z,3.88
2022-12-07T12:35:21.700Z,3.91
2022-12-07T12:36:34.129Z,3.87
2022-12-07T12:37:36.146Z,3.89
2022-12-07T12:38:59.850Z,3.90
2022-12-07T12:40:16.794Z,3.93
2022-12-07T12:41:40.815Z,3.91
2022-12-07T12:42:45.993Z,3.99
2022-12-07T12:43:53.775Z,3.85
2022-12-07T12:45:25.669Z,4.01
2022-12-07T12:46:30.509Z,3.94
2022-12-07T12:47:43.338Z,3.95
2022-12-07T12:48:45.883Z,3.95
2022-12-07T12:50:24.447Z,3.91
2022-12-07T12:51:41.740Z,3.89
2022-12-07T12:52:48.771Z,3.92
2022-12-07T12:53:53.157Z,3.98
2022-12-07T12:55:10.576Z,4.07
2022-12-07T12:56:35.594Z,4.01
2022-12-07T12:57:38.307Z,4.11
2022-12-07T12:58:42.863Z,4.18
2022-12-07T12:59:47.650Z,4.22
2022-12-07T13:01:28.295Z,4.17
2022-12-07T13:02:31.986Z,4.14
2022-12-07T13:03:35.358Z,4.12
2022-12-07T13:04:49.315Z,4.11
2022-12-07T13:06:21.197Z,4.11
2022-12-07T13:07:48.728Z,4.12
2022-12-07T13:08:51.662Z,4.09
2022-12-07T13:09:53.802Z,4.04
2022-12-07T13:11:15.606Z,4.01
2022-12-07T13:12:20.491Z,3.97
2022-12-07T13:13:23.559Z,4.10
2022-12-07T13:15:00.935Z,4.12
2022-12-07T13:16:08.991Z,4.19
2022-12-07T13:17:33.539Z,4.20
2022-12-07T13:18:38.419Z,4.12
2022-12-07T13:19:42.855Z,4.14
2022-12-07T13:20:50.694Z,4.13
2022-12-07T13:21:52.634Z,3.96
2022-12-07T13:22:59.500Z,4.04
2022-12-07T13:24:03.250Z,4.06
2022-12-07T13:25:22.141Z,4.12
2022-12-07T13:26:43.150Z,4.09
2022-12-07T13:27:53.063Z,3.99
2022-12-07T13:29:18.241Z,3.99
2022-12-07T13:30:22.365Z,3.84
2022-12-07T13:31:55.951Z,4.01
2022-12-07T13:32:59.978Z,4.08
2022-12-07T13:34:04.261Z,4.12
2022-12-07T13:35:34.445Z,4.07
2022-12-07T13:36:40.087Z,4.06
2022-12-07T13:37:41.918Z,4.10
2022-12-07T13:38:51.015Z,4.11
2022-12-07T13:40:20.654Z,4.06
2022-12-07T13:41:25.103Z,4.04
2022-12-07T13:42:32.088Z,4.04
2022-12-07T13:43:46.705Z,4.06
2022-12-07T13:44:48.581Z,4.11
2022-12-07T13:46:01.894Z,4.18
2022-12-07T13:47:23.755Z,4.20
2022-12-07T13:48:45.752Z,4.02
2022-12-07T13:49:54.351Z,3.94
2022-12-07T13:50:57.880Z,4.00
2022-12-07T13:52:32.182Z,4.06
2022-12-07T13:53:33.995Z,4.06
2022-12-07T13:54:45.324Z,4.14
2022-12-07T13:55:53.833Z,4.09
2022-12-07T13:56:56.472Z,4.06
2022-12-07T13:57:58.497Z,4.05
2022-12-07T13:59:00.772Z,4.06
2022-12-07T14:00:05.473Z,4.07
2022-12-07T14:01:08.505Z,4.09
2022-12-07T14:02:22.623Z,4.11
2022-12-07T14:03:33.993Z,4.14
2022-12-07T14:04:38.345Z,4.17
2022-12-07T14:05:43.467Z,4.25
2022-12-07T14:06:53.166Z,4.26
2022-12-07T14:07:57.023Z,4.26
2022-12-07T14:09:10.265Z,4.26
2022-12-07T14:10:29.814Z,4.23
2022-12-07T14:11:32.159Z,4.20
2022-12-07T14:12:37.443Z,4.22
2022-12-07T14:13:45.079Z,4.22
2022-12-07T14:14:50.736Z,4.23
2022-12-07T14:15:53.408Z,4.23
2022-12-07T14:17:18.445Z,4.23
2022-12-07T14:18:30.461Z,4.23
2022-12-07T14:19:50.772Z,4.26
2022-12-07T14:21:04.204Z,4.29
2022-12-07T14:22:18.927Z,4.28
2022-12-07T14:23:27.727Z,4.34
2022-12-07T14:24:30.115Z,4.36
2022-12-07T14:25:34.300Z,4.38
2022-12-07T14:26:36.296Z,4.36
2022-12-07T14:27:38.089Z,4.37
2022-12-07T14:28:41.238Z,4.37
2022-12-07T14:29:43.586Z,4.37
2022-12-07T14:30:45.688Z,4.34
2022-12-07T14:31:47.545Z,4.31
2022-12-07T14:32:54.546Z,4.30
2022-12-07T14:34:00.648Z,4.28
2022-12-07T14:35:12.836Z,4.26
2022-12-07T14:36:15.437Z,4.25
2022-12-07T14:37:17.057Z,4.25
2022-12-07T14:38:19.687Z,4.24
2022-12-07T14:39:21.950Z,4.23
2022-12-07T14:40:29.160Z,4.25
2022-12-07T14:41:49.508Z,4.24
2022-12-07T14:43:01.903Z,4.25
2022-12-07T14:44:23.102Z,4.26
2022-12-07T14:45:27.540Z,4.28
2022-12-07T14:46:29.785Z,4.26
2022-12-07T14:50:20.643Z,4.19
2022-12-07T14:54:22.025Z,4.33
2022-12-07T14:55:30.561Z,4.33
2022-12-07T14:56:32.665Z,4.36
2022-12-07T14:57:35.752Z,4.36
2022-12-07T14:58:39.249Z,4.37
2022-12-07T14:59:45.098Z,4.36
2022-12-07T15:00:48.634Z,4.34
2022-12-07T15:01:51.629Z,4.39
2022-12-07T15:02:54.236Z,4.37
2022-12-07T15:03:56.210Z,4.31